sensor_id;sensor_type;location;lat;lon;timestamp;P1;durP1;ratioP1;P2;durP2;ratioP2
69207;SDS011;56321;47.662;8.878;2022-11-15T00:00:47;22.65;;;2.80;;
69207;SDS011;56321;47.662;8.878;2022-11-15T00:03:17;34.15;;;3.35;;
69207;SDS011;56321;47.662;8.878;2022-11-15T00:05:43;30.80;;;4.03;;
69207;SDS011;56321;47.662;8.878;2022-11-15T00:08:09;15.47;;;3.20;;
69207;SDS011;56321;47.662;8.878;2022-11-15T00:10:36;13.70;;;2.95;;
69207;SDS011;56321;47.662;8.878;2022-11-15T00:13:11;22.48;;;3.38;;
69207;SDS011;56321;47.662;8.878;2022-11-15T00:15:38;27.23;;;3.65;;
69207;SDS011;56321;47.662;8.878;2022-11-15T00:18:05;37.08;;;4.00;;
69207;SDS011;56321;47.662;8.878;2022-11-15T00:20:33;24.13;;;3.50;;
69207;SDS011;56321;47.662;8.878;2022-11-15T00:22:58;30.08;;;3.72;;
69207;SDS011;56321;47.662;8.878;2022-11-15T00:25:24;33.77;;;4.47;;
69207;SDS011;56321;47.662;8.878;2022-11-15T00:27:49;21.45;;;3.20;;
69207;SDS011;56321;47.662;8.878;2022-11-15T00:30:16;22.67;;;3.27;;
69207;SDS011;56321;47.662;8.878;2022-11-15T00:32:42;19.70;;;3.40;;
69207;SDS011;56321;47.662;8.878;2022-11-15T00:35:07;26.73;;;3.33;;
69207;SDS011;56321;47.662;8.878;2022-11-15T00:37:33;25.47;;;3.37;;
69207;SDS011;56321;47.662;8.878;2022-11-15T00:39:58;38.27;;;3.73;;
69207;SDS011;56321;47.662;8.878;2022-11-15T00:42:23;43.10;;;3.60;;
69207;SDS011;56321;47.662;8.878;2022-11-15T00:44:49;31.37;;;3.77;;
69207;SDS011;56321;47.662;8.878;2022-11-15T00:47:14;25.33;;;3.73;;
69207;SDS011;56321;47.662;8.878;2022-11-15T00:49:39;29.13;;;3.50;;
69207;SDS011;56321;47.662;8.878;2022-11-15T00:52:05;28.42;;;3.70;;
69207;SDS011;56321;47.662;8.878;2022-11-15T00:54:31;53.73;;;4.63;;
69207;SDS011;56321;47.662;8.878;2022-11-15T00:56:56;27.33;;;3.20;;
69207;SDS011;56321;47.662;8.878;2022-11-15T00:59:22;28.23;;;3.37;;
69207;SDS011;56321;47.662;8.878;2022-11-15T01:01:47;37.20;;;3.83;;
69207;SDS011;56321;47.662;8.878;2022-11-15T01:04:12;21.10;;;2.90;;
69207;SDS011;56321;47.662;8.878;2022-11-15T01:06:38;42.38;;;3.90;;
69207;SDS011;56321;47.662;8.878;2022-11-15T01:09:04;36.80;;;3.53;;
69207;SDS011;56321;47.662;8.878;2022-11-15T01:11:29;32.63;;;3.60;;
69207;SDS011;56321;47.662;8.878;2022-11-15T01:13:54;23.67;;;3.30;;
69207;SDS011;56321;47.662;8.878;2022-11-15T01:16:20;22.48;;;3.10;;
69207;SDS011;56321;47.662;8.878;2022-11-15T01:18:45;21.17;;;3.20;;
69207;SDS011;56321;47.662;8.878;2022-11-15T01:21:13;38.37;;;4.03;;
69207;SDS011;56321;47.662;8.878;2022-11-15T01:23:40;31.25;;;3.80;;
69207;SDS011;56321;47.662;8.878;2022-11-15T01:26:06;25.25;;;3.13;;
69207;SDS011;56321;47.662;8.878;2022-11-15T01:28:35;23.08;;;3.05;;
69207;SDS011;56321;47.662;8.878;2022-11-15T01:31:02;20.10;;;3.10;;
69207;SDS011;56321;47.662;8.878;2022-11-15T01:33:29;18.27;;;2.70;;
69207;SDS011;56321;47.662;8.878;2022-11-15T01:35:55;15.75;;;3.35;;
69207;SDS011;56321;47.662;8.878;2022-11-15T01:38:21;19.00;;;2.93;;
69207;SDS011;56321;47.662;8.878;2022-11-15T01:40:47;16.35;;;2.97;;
69207;SDS011;56321;47.662;8.878;2022-11-15T01:43:20;19.85;;;3.08;;
69207;SDS011;56321;47.662;8.878;2022-11-15T01:45:56;16.77;;;2.88;;
69207;SDS011;56321;47.662;8.878;2022-11-15T01:48:33;11.80;;;2.90;;
69207;SDS011;56321;47.662;8.878;2022-11-15T01:51:09;11.67;;;3.00;;
69207;SDS011;56321;47.662;8.878;2022-11-15T01:53:38;8.38;;;2.80;;
69207;SDS011;56321;47.662;8.878;2022-11-15T01:56:07;8.95;;;2.80;;
69207;SDS011;56321;47.662;8.878;2022-11-15T01:58:38;12.27;;;2.78;;
69207;SDS011;56321;47.662;8.878;2022-11-15T02:01:05;7.85;;;2.58;;
69207;SDS011;56321;47.662;8.878;2022-11-15T02:03:33;9.73;;;3.00;;
69207;SDS011;56321;47.662;8.878;2022-11-15T02:06:04;10.10;;;2.80;;
69207;SDS011;56321;47.662;8.878;2022-11-15T02:08:30;7.40;;;2.90;;
69207;SDS011;56321;47.662;8.878;2022-11-15T02:10:55;6.83;;;2.60;;
69207;SDS011;56321;47.662;8.878;2022-11-15T02:13:20;9.00;;;2.70;;
69207;SDS011;56321;47.662;8.878;2022-11-15T02:18:40;7.82;;;2.78;;
69207;SDS011;56321;47.662;8.878;2022-11-15T02:29:50;8.00;;;2.70;;
69207;SDS011;56321;47.662;8.878;2022-11-15T02:32:47;7.85;;;2.95;;
69207;SDS011;56321;47.662;8.878;2022-11-15T02:37:52;6.63;;;2.70;;
69207;SDS011;56321;47.662;8.878;2022-11-15T02:40:34;6.97;;;2.80;;
69207;SDS011;56321;47.662;8.878;2022-11-15T02:43:10;7.32;;;3.30;;
69207;SDS011;56321;47.662;8.878;2022-11-15T02:46:04;7.68;;;2.95;;
69207;SDS011;56321;47.662;8.878;2022-11-15T02:48:42;9.23;;;3.20;;
69207;SDS011;56321;47.662;8.878;2022-11-15T02:51:08;6.88;;;2.53;;
69207;SDS011;56321;47.662;8.878;2022-11-15T02:53:34;11.85;;;3.28;;
69207;SDS011;56321;47.662;8.878;2022-11-15T02:56:00;11.53;;;3.10;;
69207;SDS011;56321;47.662;8.878;2022-11-15T03:07:16;9.73;;;3.47;;
69207;SDS011;56321;47.662;8.878;2022-11-15T03:09:51;10.40;;;3.00;;
69207;SDS011;56321;47.662;8.878;2022-11-15T03:12:25;13.40;;;3.20;;
69207;SDS011;56321;47.662;8.878;2022-11-15T03:14:58;10.37;;;3.20;;
69207;SDS011;56321;47.662;8.878;2022-11-15T03:17:32;12.27;;;3.55;;
69207;SDS011;56321;47.662;8.878;2022-11-15T03:20:01;9.77;;;3.53;;
69207;SDS011;56321;47.662;8.878;2022-11-15T03:22:29;8.95;;;3.95;;
69207;SDS011;56321;47.662;8.878;2022-11-15T03:24:59;13.10;;;3.50;;
69207;SDS011;56321;47.662;8.878;2022-11-15T03:27:31;13.77;;;3.90;;
69207;SDS011;56321;47.662;8.878;2022-11-15T03:30:04;35.08;;;4.63;;
69207;SDS011;56321;47.662;8.878;2022-11-15T03:32:32;9.95;;;3.50;;
69207;SDS011;56321;47.662;8.878;2022-11-15T03:35:05;8.75;;;3.15;;
69207;SDS011;56321;47.662;8.878;2022-11-15T03:40:42;9.47;;;3.20;;
69207;SDS011;56321;47.662;8.878;2022-11-15T03:45:56;7.45;;;3.28;;
69207;SDS011;56321;47.662;8.878;2022-11-15T03:48:27;15.25;;;3.60;;
69207;SDS011;56321;47.662;8.878;2022-11-15T03:50:58;6.97;;;3.15;;
69207;SDS011;56321;47.662;8.878;2022-11-15T03:53:24;8.10;;;3.60;;
69207;SDS011;56321;47.662;8.878;2022-11-15T03:55:49;8.00;;;3.57;;
69207;SDS011;56321;47.662;8.878;2022-11-15T03:58:14;8.30;;;3.80;;
69207;SDS011;56321;47.662;8.878;2022-11-15T04:00:40;8.67;;;3.53;;
69207;SDS011;56321;47.662;8.878;2022-11-15T04:03:05;9.23;;;3.73;;
69207;SDS011;56321;47.662;8.878;2022-11-15T04:05:32;9.88;;;3.28;;
69207;SDS011;56321;47.662;8.878;2022-11-15T04:07:57;8.13;;;3.70;;
69207;SDS011;56321;47.662;8.878;2022-11-15T04:10:22;8.95;;;3.70;;
69207;SDS011;56321;47.662;8.878;2022-11-15T04:12:48;7.53;;;3.47;;
69207;SDS011;56321;47.662;8.878;2022-11-15T04:15:14;8.40;;;3.60;;
69207;SDS011;56321;47.662;8.878;2022-11-15T04:17:54;8.25;;;3.67;;
69207;SDS011;56321;47.662;8.878;2022-11-15T04:20:22;7.23;;;3.30;;
69207;SDS011;56321;47.662;8.878;2022-11-15T04:23:18;7.95;;;3.58;;
69207;SDS011;56321;47.662;8.878;2022-11-15T04:26:04;9.52;;;3.30;;
69207;SDS011;56321;47.662;8.878;2022-11-15T04:28:32;8.40;;;3.30;;
69207;SDS011;56321;47.662;8.878;2022-11-15T04:30:58;8.00;;;3.20;;
69207;SDS011;56321;47.662;8.878;2022-11-15T04:33:23;6.80;;;2.70;;
69207;SDS011;56321;47.662;8.878;2022-11-15T04:35:48;8.43;;;2.90;;
69207;SDS011;56321;47.662;8.878;2022-11-15T04:38:33;7.97;;;2.90;;
69207;SDS011;56321;47.662;8.878;2022-11-15T04:40:59;7.73;;;3.60;;
69207;SDS011;56321;47.662;8.878;2022-11-15T04:43:24;8.18;;;3.25;;
69207;SDS011;56321;47.662;8.878;2022-11-15T04:45:49;12.90;;;3.70;;
69207;SDS011;56321;47.662;8.878;2022-11-15T04:48:15;8.07;;;3.33;;
69207;SDS011;56321;47.662;8.878;2022-11-15T04:50:40;8.27;;;3.43;;
69207;SDS011;56321;47.662;8.878;2022-11-15T04:53:05;8.37;;;3.47;;
69207;SDS011;56321;47.662;8.878;2022-11-15T04:55:31;7.93;;;3.58;;
69207;SDS011;56321;47.662;8.878;2022-11-15T04:57:57;10.00;;;3.83;;
69207;SDS011;56321;47.662;8.878;2022-11-15T05:00:24;11.27;;;4.32;;
69207;SDS011;56321;47.662;8.878;2022-11-15T05:02:51;14.07;;;4.10;;
69207;SDS011;56321;47.662;8.878;2022-11-15T05:05:35;17.63;;;3.67;;
69207;SDS011;56321;47.662;8.878;2022-11-15T05:08:00;21.92;;;4.13;;
69207;SDS011;56321;47.662;8.878;2022-11-15T05:10:25;14.63;;;4.20;;
69207;SDS011;56321;47.662;8.878;2022-11-15T05:12:51;41.03;;;4.73;;
69207;SDS011;56321;47.662;8.878;2022-11-15T05:15:16;16.53;;;3.90;;
69207;SDS011;56321;47.662;8.878;2022-11-15T05:17:41;30.13;;;4.40;;
69207;SDS011;56321;47.662;8.878;2022-11-15T05:20:07;22.20;;;3.80;;
69207;SDS011;56321;47.662;8.878;2022-11-15T05:22:33;18.42;;;3.75;;
69207;SDS011;56321;47.662;8.878;2022-11-15T05:24:58;17.70;;;3.10;;
69207;SDS011;56321;47.662;8.878;2022-11-15T05:27:23;25.33;;;4.17;;
69207;SDS011;56321;47.662;8.878;2022-11-15T05:29:49;23.37;;;4.33;;
69207;SDS011;56321;47.662;8.878;2022-11-15T05:32:14;22.50;;;3.85;;
69207;SDS011;56321;47.662;8.878;2022-11-15T05:34:41;24.30;;;4.00;;
69207;SDS011;56321;47.662;8.878;2022-11-15T05:37:07;31.48;;;4.70;;
69207;SDS011;56321;47.662;8.878;2022-11-15T05:39:32;38.40;;;4.63;;
69207;SDS011;56321;47.662;8.878;2022-11-15T05:42:31;48.40;;;4.60;;
69207;SDS011;56321;47.662;8.878;2022-11-15T05:44:50;58.15;;;5.28;;
69207;SDS011;56321;47.662;8.878;2022-11-15T05:47:17;56.80;;;4.73;;
69207;SDS011;56321;47.662;8.878;2022-11-15T05:49:47;72.78;;;7.50;;
69207;SDS011;56321;47.662;8.878;2022-11-15T05:52:14;60.35;;;6.22;;
69207;SDS011;56321;47.662;8.878;2022-11-15T05:54:43;49.55;;;4.63;;
69207;SDS011;56321;47.662;8.878;2022-11-15T05:57:09;45.50;;;4.50;;
69207;SDS011;56321;47.662;8.878;2022-11-15T05:59:34;36.47;;;3.72;;
69207;SDS011;56321;47.662;8.878;2022-11-15T06:02:00;14.65;;;2.83;;
69207;SDS011;56321;47.662;8.878;2022-11-15T06:04:26;21.23;;;3.40;;
69207;SDS011;56321;47.662;8.878;2022-11-15T06:06:51;32.50;;;3.67;;
69207;SDS011;56321;47.662;8.878;2022-11-15T06:09:17;37.90;;;3.97;;
69207;SDS011;56321;47.662;8.878;2022-11-15T06:11:42;25.85;;;4.30;;
69207;SDS011;56321;47.662;8.878;2022-11-15T06:14:07;19.10;;;3.13;;
69207;SDS011;56321;47.662;8.878;2022-11-15T06:16:33;21.30;;;3.07;;
69207;SDS011;56321;47.662;8.878;2022-11-15T06:18:58;15.40;;;2.60;;
69207;SDS011;56321;47.662;8.878;2022-11-15T06:21:23;11.37;;;3.43;;
69207;SDS011;56321;47.662;8.878;2022-11-15T06:23:49;20.70;;;3.73;;
69207;SDS011;56321;47.662;8.878;2022-11-15T06:26:14;22.02;;;4.07;;
69207;SDS011;56321;47.662;8.878;2022-11-15T06:28:40;18.40;;;4.53;;
69207;SDS011;56321;47.662;8.878;2022-11-15T06:31:06;20.10;;;5.17;;
69207;SDS011;56321;47.662;8.878;2022-11-15T06:33:32;40.92;;;6.68;;
69207;SDS011;56321;47.662;8.878;2022-11-15T06:36:02;27.20;;;5.50;;
69207;SDS011;56321;47.662;8.878;2022-11-15T06:38:28;20.40;;;4.57;;
69207;SDS011;56321;47.662;8.878;2022-11-15T06:40:53;14.13;;;3.80;;
69207;SDS011;56321;47.662;8.878;2022-11-15T06:43:19;22.73;;;4.43;;
69207;SDS011;56321;47.662;8.878;2022-11-15T06:45:44;32.60;;;4.93;;
69207;SDS011;56321;47.662;8.878;2022-11-15T06:48:09;18.23;;;4.17;;
69207;SDS011;56321;47.662;8.878;2022-11-15T06:50:35;16.02;;;3.60;;
69207;SDS011;56321;47.662;8.878;2022-11-15T06:53:00;13.33;;;3.67;;
69207;SDS011;56321;47.662;8.878;2022-11-15T06:55:28;15.87;;;4.60;;
69207;SDS011;56321;47.662;8.878;2022-11-15T06:57:53;16.33;;;3.97;;
69207;SDS011;56321;47.662;8.878;2022-11-15T07:00:19;22.30;;;4.90;;
69207;SDS011;56321;47.662;8.878;2022-11-15T07:02:46;17.10;;;4.40;;
69207;SDS011;56321;47.662;8.878;2022-11-15T07:05:12;14.67;;;4.30;;
69207;SDS011;56321;47.662;8.878;2022-11-15T07:07:37;13.82;;;5.43;;
69207;SDS011;56321;47.662;8.878;2022-11-15T07:10:03;14.37;;;4.60;;
69207;SDS011;56321;47.662;8.878;2022-11-15T07:12:29;26.17;;;5.05;;
69207;SDS011;56321;47.662;8.878;2022-11-15T07:14:54;21.47;;;4.93;;
69207;SDS011;56321;47.662;8.878;2022-11-15T07:17:20;23.67;;;4.90;;
69207;SDS011;56321;47.662;8.878;2022-11-15T07:19:45;16.00;;;4.60;;
69207;SDS011;56321;47.662;8.878;2022-11-15T07:22:10;55.42;;;19.17;;
69207;SDS011;56321;47.662;8.878;2022-11-15T07:24:36;24.87;;;9.00;;
69207;SDS011;56321;47.662;8.878;2022-11-15T07:27:01;21.80;;;7.77;;
69207;SDS011;56321;47.662;8.878;2022-11-15T07:29:26;25.97;;;6.70;;
69207;SDS011;56321;47.662;8.878;2022-11-15T07:31:52;41.70;;;6.63;;
69207;SDS011;56321;47.662;8.878;2022-11-15T07:34:17;39.00;;;6.27;;
69207;SDS011;56321;47.662;8.878;2022-11-15T07:36:42;27.43;;;6.03;;
69207;SDS011;56321;47.662;8.878;2022-11-15T07:39:08;18.73;;;5.00;;
69207;SDS011;56321;47.662;8.878;2022-11-15T07:41:33;34.30;;;5.73;;
69207;SDS011;56321;47.662;8.878;2022-11-15T07:43:59;22.30;;;5.20;;
69207;SDS011;56321;47.662;8.878;2022-11-15T07:46:25;18.58;;;6.00;;
69207;SDS011;56321;47.662;8.878;2022-11-15T07:48:50;26.77;;;5.93;;
69207;SDS011;56321;47.662;8.878;2022-11-15T07:51:16;26.27;;;6.97;;
69207;SDS011;56321;47.662;8.878;2022-11-15T07:53:42;22.77;;;6.28;;
69207;SDS011;56321;47.662;8.878;2022-11-15T07:56:08;24.00;;;6.07;;
69207;SDS011;56321;47.662;8.878;2022-11-15T07:58:34;33.27;;;5.97;;
69207;SDS011;56321;47.662;8.878;2022-11-15T08:01:02;24.80;;;5.57;;
69207;SDS011;56321;47.662;8.878;2022-11-15T08:03:31;17.50;;;5.13;;
69207;SDS011;56321;47.662;8.878;2022-11-15T08:05:57;27.20;;;5.80;;
69207;SDS011;56321;47.662;8.878;2022-11-15T08:08:22;21.30;;;6.07;;
69207;SDS011;56321;47.662;8.878;2022-11-15T08:10:48;24.03;;;7.23;;
69207;SDS011;56321;47.662;8.878;2022-11-15T08:13:13;17.88;;;5.30;;
69207;SDS011;56321;47.662;8.878;2022-11-15T08:15:39;17.20;;;5.17;;
69207;SDS011;56321;47.662;8.878;2022-11-15T08:18:05;26.50;;;5.30;;
69207;SDS011;56321;47.662;8.878;2022-11-15T08:20:34;16.48;;;5.80;;
69207;SDS011;56321;47.662;8.878;2022-11-15T08:23:00;26.52;;;5.68;;
69207;SDS011;56321;47.662;8.878;2022-11-15T08:25:27;35.22;;;6.13;;
69207;SDS011;56321;47.662;8.878;2022-11-15T08:27:58;22.90;;;6.40;;
69207;SDS011;56321;47.662;8.878;2022-11-15T08:30:25;19.48;;;6.20;;
69207;SDS011;56321;47.662;8.878;2022-11-15T08:32:51;24.23;;;6.17;;
69207;SDS011;56321;47.662;8.878;2022-11-15T08:35:17;28.63;;;6.10;;
69207;SDS011;56321;47.662;8.878;2022-11-15T08:37:43;22.60;;;5.20;;
69207;SDS011;56321;47.662;8.878;2022-11-15T08:40:09;31.23;;;6.00;;
69207;SDS011;56321;47.662;8.878;2022-11-15T08:42:35;20.30;;;5.57;;
69207;SDS011;56321;47.662;8.878;2022-11-15T08:45:00;16.45;;;5.93;;
69207;SDS011;56321;47.662;8.878;2022-11-15T08:47:26;42.70;;;9.37;;
69207;SDS011;56321;47.662;8.878;2022-11-15T08:49:51;73.23;;;22.97;;
69207;SDS011;56321;47.662;8.878;2022-11-15T08:52:17;62.85;;;19.02;;
69207;SDS011;56321;47.662;8.878;2022-11-15T08:54:43;31.57;;;9.00;;
69207;SDS011;56321;47.662;8.878;2022-11-15T08:57:08;19.27;;;7.03;;
69207;SDS011;56321;47.662;8.878;2022-11-15T08:59:34;20.48;;;5.80;;
69207;SDS011;56321;47.662;8.878;2022-11-15T09:02:00;16.70;;;4.63;;
69207;SDS011;56321;47.662;8.878;2022-11-15T09:04:26;13.50;;;4.90;;
69207;SDS011;56321;47.662;8.878;2022-11-15T09:06:51;9.30;;;4.50;;
69207;SDS011;56321;47.662;8.878;2022-11-15T09:09:17;14.17;;;4.80;;
69207;SDS011;56321;47.662;8.878;2022-11-15T09:11:42;11.17;;;4.83;;
69207;SDS011;56321;47.662;8.878;2022-11-15T09:14:09;13.53;;;4.77;;
69207;SDS011;56321;47.662;8.878;2022-11-15T09:16:38;10.45;;;5.05;;
69207;SDS011;56321;47.662;8.878;2022-11-15T09:19:03;10.10;;;5.07;;
69207;SDS011;56321;47.662;8.878;2022-11-15T09:21:29;12.50;;;5.17;;
69207;SDS011;56321;47.662;8.878;2022-11-15T09:23:55;11.52;;;4.75;;
69207;SDS011;56321;47.662;8.878;2022-11-15T09:26:20;14.40;;;5.13;;
69207;SDS011;56321;47.662;8.878;2022-11-15T09:28:46;11.02;;;4.93;;
69207;SDS011;56321;47.662;8.878;2022-11-15T09:31:11;10.90;;;5.53;;
69207;SDS011;56321;47.662;8.878;2022-11-15T09:33:36;12.43;;;5.30;;
69207;SDS011;56321;47.662;8.878;2022-11-15T09:36:05;10.73;;;5.10;;
69207;SDS011;56321;47.662;8.878;2022-11-15T09:38:32;10.35;;;4.38;;
69207;SDS011;56321;47.662;8.878;2022-11-15T09:41:08;9.98;;;5.03;;
69207;SDS011;56321;47.662;8.878;2022-11-15T09:43:50;10.37;;;4.77;;
69207;SDS011;56321;47.662;8.878;2022-11-15T09:49:11;9.60;;;4.60;;
69207;SDS011;56321;47.662;8.878;2022-11-15T09:51:41;11.52;;;5.50;;
69207;SDS011;56321;47.662;8.878;2022-11-15T09:57:02;10.13;;;5.03;;
69207;SDS011;56321;47.662;8.878;2022-11-15T10:05:07;11.30;;;5.85;;
69207;SDS011;56321;47.662;8.878;2022-11-15T10:10:36;20.27;;;9.00;;
69207;SDS011;56321;47.662;8.878;2022-11-15T10:13:02;15.15;;;7.05;;
69207;SDS011;56321;47.662;8.878;2022-11-15T10:15:28;13.10;;;6.65;;
69207;SDS011;56321;47.662;8.878;2022-11-15T10:18:13;15.20;;;7.10;;
69207;SDS011;56321;47.662;8.878;2022-11-15T10:20:42;11.90;;;6.00;;
69207;SDS011;56321;47.662;8.878;2022-11-15T10:23:13;12.20;;;6.55;;
69207;SDS011;56321;47.662;8.878;2022-11-15T10:25:40;11.13;;;6.15;;
69207;SDS011;56321;47.662;8.878;2022-11-15T10:28:10;11.30;;;6.03;;
69207;SDS011;56321;47.662;8.878;2022-11-15T10:30:38;13.18;;;6.80;;
69207;SDS011;56321;47.662;8.878;2022-11-15T10:33:10;12.35;;;6.32;;
69207;SDS011;56321;47.662;8.878;2022-11-15T10:35:42;12.50;;;6.32;;
69207;SDS011;56321;47.662;8.878;2022-11-15T10:38:09;12.73;;;5.87;;
69207;SDS011;56321;47.662;8.878;2022-11-15T10:40:36;13.23;;;6.53;;
69207;SDS011;56321;47.662;8.878;2022-11-15T10:43:04;12.55;;;6.72;;
69207;SDS011;56321;47.662;8.878;2022-11-15T10:45:31;12.27;;;6.35;;
69207;SDS011;56321;47.662;8.878;2022-11-15T10:50:38;12.00;;;6.30;;
69207;SDS011;56321;47.662;8.878;2022-11-15T10:53:04;11.68;;;6.38;;
69207;SDS011;56321;47.662;8.878;2022-11-15T10:55:41;11.95;;;5.93;;
69207;SDS011;56321;47.662;8.878;2022-11-15T10:58:26;11.18;;;5.63;;
69207;SDS011;56321;47.662;8.878;2022-11-15T11:01:05;10.77;;;5.57;;
69207;SDS011;56321;47.662;8.878;2022-11-15T11:03:40;9.88;;;5.25;;
69207;SDS011;56321;47.662;8.878;2022-11-15T11:06:15;12.18;;;6.07;;
69207;SDS011;56321;47.662;8.878;2022-11-15T11:08:55;11.45;;;5.95;;
69207;SDS011;56321;47.662;8.878;2022-11-15T11:11:44;11.20;;;5.47;;
69207;SDS011;56321;47.662;8.878;2022-11-15T11:14:12;10.97;;;5.60;;
69207;SDS011;56321;47.662;8.878;2022-11-15T11:16:44;11.55;;;5.57;;
69207;SDS011;56321;47.662;8.878;2022-11-15T11:21:48;9.75;;;5.40;;
69207;SDS011;56321;47.662;8.878;2022-11-15T11:24:36;9.85;;;5.60;;
69207;SDS011;56321;47.662;8.878;2022-11-15T11:37:56;13.18;;;6.47;;
69207;SDS011;56321;47.662;8.878;2022-11-15T11:46:20;12.38;;;6.38;;
69207;SDS011;56321;47.662;8.878;2022-11-15T11:49:06;11.07;;;6.05;;
69207;SDS011;56321;47.662;8.878;2022-11-15T11:51:46;13.27;;;7.28;;
69207;SDS011;56321;47.662;8.878;2022-11-15T11:54:24;12.13;;;6.27;;
69207;SDS011;56321;47.662;8.878;2022-11-15T11:56:58;10.80;;;5.80;;
69207;SDS011;56321;47.662;8.878;2022-11-15T11:59:33;11.65;;;6.05;;
69207;SDS011;56321;47.662;8.878;2022-11-15T12:02:13;11.18;;;5.82;;
69207;SDS011;56321;47.662;8.878;2022-11-15T12:04:45;10.60;;;5.47;;
69207;SDS011;56321;47.662;8.878;2022-11-15T12:07:17;10.77;;;5.60;;
69207;SDS011;56321;47.662;8.878;2022-11-15T12:12:16;9.63;;;4.97;;
69207;SDS011;56321;47.662;8.878;2022-11-15T12:15:01;11.10;;;5.70;;
69207;SDS011;56321;47.662;8.878;2022-11-15T12:17:38;11.13;;;5.85;;
69207;SDS011;56321;47.662;8.878;2022-11-15T12:22:42;10.90;;;5.70;;
69207;SDS011;56321;47.662;8.878;2022-11-15T12:25:17;11.07;;;5.93;;
69207;SDS011;56321;47.662;8.878;2022-11-15T12:28:02;11.82;;;6.60;;
69207;SDS011;56321;47.662;8.878;2022-11-15T12:30:48;11.15;;;6.93;;
69207;SDS011;56321;47.662;8.878;2022-11-15T12:34:00;20.70;;;8.70;;
69207;SDS011;56321;47.662;8.878;2022-11-15T12:36:11;12.05;;;6.10;;
69207;SDS011;56321;47.662;8.878;2022-11-15T12:38:59;10.20;;;5.57;;
69207;SDS011;56321;47.662;8.878;2022-11-15T12:41:28;13.77;;;7.47;;
69207;SDS011;56321;47.662;8.878;2022-11-15T12:43:54;12.93;;;7.45;;
69207;SDS011;56321;47.662;8.878;2022-11-15T12:48:49;18.55;;;10.25;;
69207;SDS011;56321;47.662;8.878;2022-11-15T12:51:18;14.83;;;8.37;;
69207;SDS011;56321;47.662;8.878;2022-11-15T12:53:45;14.60;;;7.40;;
69207;SDS011;56321;47.662;8.878;2022-11-15T12:58:52;11.52;;;6.38;;
69207;SDS011;56321;47.662;8.878;2022-11-15T13:06:55;11.75;;;6.53;;
69207;SDS011;56321;47.662;8.878;2022-11-15T13:11:54;10.87;;;6.10;;
69207;SDS011;56321;47.662;8.878;2022-11-15T13:17:02;10.70;;;5.70;;
69207;SDS011;56321;47.662;8.878;2022-11-15T13:19:57;9.02;;;5.18;;
69207;SDS011;56321;47.662;8.878;2022-11-15T13:22:24;10.23;;;5.25;;
69207;SDS011;56321;47.662;8.878;2022-11-15T13:27:55;10.98;;;5.10;;
69207;SDS011;56321;47.662;8.878;2022-11-15T13:30:24;11.23;;;5.95;;
69207;SDS011;56321;47.662;8.878;2022-11-15T13:32:51;10.77;;;5.18;;
69207;SDS011;56321;47.662;8.878;2022-11-15T13:35:27;11.80;;;5.85;;
69207;SDS011;56321;47.662;8.878;2022-11-15T13:37:55;12.30;;;6.13;;
69207;SDS011;56321;47.662;8.878;2022-11-15T13:40:28;10.95;;;5.57;;
69207;SDS011;56321;47.662;8.878;2022-11-15T13:42:59;11.90;;;6.40;;
69207;SDS011;56321;47.662;8.878;2022-11-15T13:45:24;11.67;;;7.00;;
69207;SDS011;56321;47.662;8.878;2022-11-15T13:47:55;12.80;;;7.40;;
69207;SDS011;56321;47.662;8.878;2022-11-15T13:50:27;14.02;;;7.40;;
69207;SDS011;56321;47.662;8.878;2022-11-15T13:52:58;12.95;;;6.80;;
69207;SDS011;56321;47.662;8.878;2022-11-15T13:55:28;12.50;;;6.93;;
69207;SDS011;56321;47.662;8.878;2022-11-15T13:57:58;13.93;;;7.27;;
69207;SDS011;56321;47.662;8.878;2022-11-15T14:03:19;14.77;;;8.40;;
69207;SDS011;56321;47.662;8.878;2022-11-15T14:06:03;13.50;;;8.27;;
69207;SDS011;56321;47.662;8.878;2022-11-15T14:08:31;14.40;;;8.23;;
69207;SDS011;56321;47.662;8.878;2022-11-15T14:11:07;13.60;;;8.03;;
69207;SDS011;56321;47.662;8.878;2022-11-15T14:13:35;14.98;;;9.25;;
69207;SDS011;56321;47.662;8.878;2022-11-15T14:16:14;15.70;;;8.73;;
69207;SDS011;56321;47.662;8.878;2022-11-15T14:18:50;14.63;;;8.13;;
69207;SDS011;56321;47.662;8.878;2022-11-15T14:21:17;13.70;;;8.15;;
69207;SDS011;56321;47.662;8.878;2022-11-15T14:23:43;14.05;;;7.30;;
69207;SDS011;56321;47.662;8.878;2022-11-15T14:26:28;14.30;;;8.43;;
69207;SDS011;56321;47.662;8.878;2022-11-15T14:28:55;14.38;;;7.63;;
69207;SDS011;56321;47.662;8.878;2022-11-15T14:31:20;13.83;;;7.43;;
69207;SDS011;56321;47.662;8.878;2022-11-15T14:33:46;12.60;;;6.53;;
69207;SDS011;56321;47.662;8.878;2022-11-15T14:36:13;11.90;;;6.50;;
69207;SDS011;56321;47.662;8.878;2022-11-15T14:38:41;11.68;;;6.45;;
69207;SDS011;56321;47.662;8.878;2022-11-15T14:41:16;12.98;;;6.95;;
69207;SDS011;56321;47.662;8.878;2022-11-15T14:43:47;11.98;;;6.40;;
69207;SDS011;56321;47.662;8.878;2022-11-15T14:46:12;12.77;;;6.27;;
69207;SDS011;56321;47.662;8.878;2022-11-15T14:48:38;12.43;;;6.27;;
69207;SDS011;56321;47.662;8.878;2022-11-15T14:51:03;11.27;;;5.77;;
69207;SDS011;56321;47.662;8.878;2022-11-15T14:53:38;10.75;;;5.63;;
69207;SDS011;56321;47.662;8.878;2022-11-15T14:56:04;11.13;;;5.90;;
69207;SDS011;56321;47.662;8.878;2022-11-15T14:58:30;10.33;;;5.23;;
69207;SDS011;56321;47.662;8.878;2022-11-15T15:00:55;10.43;;;5.57;;
69207;SDS011;56321;47.662;8.878;2022-11-15T15:03:20;11.27;;;6.13;;
69207;SDS011;56321;47.662;8.878;2022-11-15T15:05:45;11.17;;;5.67;;
69207;SDS011;56321;47.662;8.878;2022-11-15T15:08:11;13.48;;;7.28;;
69207;SDS011;56321;47.662;8.878;2022-11-15T15:10:38;14.17;;;8.03;;
69207;SDS011;56321;47.662;8.878;2022-11-15T15:13:08;11.57;;;6.28;;
69207;SDS011;56321;47.662;8.878;2022-11-15T15:15:38;13.00;;;7.03;;
69207;SDS011;56321;47.662;8.878;2022-11-15T15:18:04;12.20;;;6.40;;
69207;SDS011;56321;47.662;8.878;2022-11-15T15:20:30;11.87;;;6.90;;
69207;SDS011;56321;47.662;8.878;2022-11-15T15:22:56;13.00;;;7.20;;
69207;SDS011;56321;47.662;8.878;2022-11-15T15:27:58;13.27;;;7.03;;
69207;SDS011;56321;47.662;8.878;2022-11-15T15:30:25;18.55;;;9.88;;
69207;SDS011;56321;47.662;8.878;2022-11-15T15:32:51;18.60;;;9.93;;
69207;SDS011;56321;47.662;8.878;2022-11-15T15:35:17;16.83;;;9.80;;
69207;SDS011;56321;47.662;8.878;2022-11-15T15:37:43;15.00;;;8.45;;
69207;SDS011;56321;47.662;8.878;2022-11-15T15:40:14;15.20;;;8.70;;
69207;SDS011;56321;47.662;8.878;2022-11-15T15:42:42;13.50;;;8.23;;
69207;SDS011;56321;47.662;8.878;2022-11-15T15:45:08;13.00;;;7.73;;
69207;SDS011;56321;47.662;8.878;2022-11-15T15:47:34;16.45;;;8.98;;
69207;SDS011;56321;47.662;8.878;2022-11-15T15:49:59;16.63;;;9.90;;
69207;SDS011;56321;47.662;8.878;2022-11-15T15:52:25;17.03;;;10.53;;
69207;SDS011;56321;47.662;8.878;2022-11-15T15:54:50;15.13;;;9.50;;
69207;SDS011;56321;47.662;8.878;2022-11-15T15:57:15;14.73;;;8.67;;
69207;SDS011;56321;47.662;8.878;2022-11-15T15:59:41;15.13;;;8.77;;
69207;SDS011;56321;47.662;8.878;2022-11-15T16:02:16;17.80;;;10.93;;
69207;SDS011;56321;47.662;8.878;2022-11-15T16:04:41;17.02;;;9.88;;
69207;SDS011;56321;47.662;8.878;2022-11-15T16:07:07;16.53;;;9.60;;
69207;SDS011;56321;47.662;8.878;2022-11-15T16:09:41;14.30;;;8.43;;
69207;SDS011;56321;47.662;8.878;2022-11-15T16:12:24;14.07;;;8.07;;
69207;SDS011;56321;47.662;8.878;2022-11-15T16:14:50;13.98;;;8.20;;
69207;SDS011;56321;47.662;8.878;2022-11-15T16:17:16;14.40;;;8.90;;
69207;SDS011;56321;47.662;8.878;2022-11-15T16:19:43;16.05;;;8.77;;